Time;durP1;ratioP1;P1;durP2;ratioP2;P2;SDS_P1;SDS_P2;PMS_P1;PMS_P2;Temp;Humidity;BMP_temperature;BMP_pressure;BME280_temperature;BME280_humidity;BME280_pressure;Samples;Min_cycle;Max_cycle;Signal;HPM_P1;HPM_P2
2022/04/12 00:00:47;;;;;;;2.20;1.70;;;6.60;99.90;;;;;;5114188;28;20467;-45
2022/04/12 00:03:14;;;;;;;3.83;2.00;;;6.60;99.90;;;;;;5113654;28;20524;-44
2022/04/12 00:05:41;;;;;;;1.90;1.40;;;6.50;99.90;;;;;;5114097;28;20586;-46
2022/04/12 00:08:10;;;;;;;1.60;1.30;;;6.30;99.90;;;;;;5114167;28;20446;-44
2022/04/12 00:10:37;;;;;;;3.10;1.50;;;6.40;99.90;;;;;;5113912;28;20440;-43
2022/04/12 00:13:05;;;;;;;2.37;1.50;;;6.60;99.90;;;;;;5113475;28;20878;-44
2022/04/12 00:15:32;;;;;;;1.40;1.30;;;6.60;99.90;;;;;;5114009;28;20437;-47
2022/04/12 00:20:44;;;;;;;1.70;1.27;;;6.60;99.90;;;;;;5113903;28;20500;-49
2022/04/12 00:23:14;;;;;;;1.90;1.20;;;6.30;99.90;;;;;;5113365;28;21052;-44
2022/04/12 00:25:43;;;;;;;1.83;1.30;;;6.20;99.90;;;;;;5113094;28;20517;-47
2022/04/12 00:28:10;;;;;;;1.40;1.30;;;6.40;99.90;;;;;;5113545;28;20646;-48
2022/04/12 00:30:37;;;;;;;1.57;1.33;;;6.10;99.90;;;;;;5113881;28;20924;-44
2022/04/12 00:33:04;;;;;;;1.47;1.30;;;6.40;99.90;;;;;;5113028;28;20490;-43
2022/04/12 00:35:31;;;;;;;2.37;1.93;;;6.30;99.90;;;;;;5113478;28;20846;-44
2022/04/12 00:37:59;;;;;;;1.50;1.40;;;6.40;99.90;;;;;;5113308;28;21025;-44
2022/04/12 00:40:27;;;;;;;2.93;1.40;;;6.50;99.90;;;;;;5113258;28;20934;-44
2022/04/12 00:42:55;;;;;;;2.50;1.13;;;6.50;99.90;;;;;;5113374;28;20449;-43
2022/04/12 00:45:22;;;;;;;1.33;1.20;;;6.40;99.90;;;;;;5113233;28;20474;-44
2022/04/12 00:47:49;;;;;;;1.70;1.17;;;6.30;99.90;;;;;;5113656;28;20530;-44
2022/04/12 00:50:16;;;;;;;4.80;1.50;;;6.30;99.90;;;;;;5113151;28;20457;-45
2022/04/12 00:52:48;;;;;;;2.50;1.53;;;6.50;99.90;;;;;;5112757;28;20881;-42
2022/04/12 00:55:15;;;;;;;2.33;1.53;;;6.60;99.90;;;;;;5113602;28;20462;-44
2022/04/12 00:57:44;;;;;;;1.37;1.27;;;6.40;99.90;;;;;;5113055;28;20868;-46
2022/04/12 01:00:12;;;;;;;2.60;1.30;;;6.30;99.90;;;;;;5112784;28;20963;-45
2022/04/12 01:02:40;;;;;;;1.60;1.50;;;6.30;99.90;;;;;;5113069;28;20441;-44
2022/04/12 01:05:08;;;;;;;2.40;1.17;;;6.30;99.90;;;;;;5112860;28;20466;-47
2022/04/12 01:07:35;;;;;;;2.60;1.20;;;6.20;99.90;;;;;;5112945;28;20439;-48
2022/04/12 01:10:03;;;;;;;1.80;1.53;;;6.00;99.90;;;;;;5113303;28;20434;-44
2022/04/12 01:12:38;;;;;;;1.67;1.30;;;5.80;99.90;;;;;;5112501;28;20979;-45
2022/04/12 01:15:14;;;;;;;1.57;1.47;;;5.80;99.90;;;;;;5112623;28;20466;-44
2022/04/12 01:17:42;;;;;;;2.40;1.70;;;5.80;99.90;;;;;;5112593;28;20452;-49
2022/04/12 01:20:10;;;;;;;1.40;1.30;;;6.20;99.90;;;;;;5112761;28;20442;-45
2022/04/12 01:22:45;;;;;;;2.50;1.67;;;6.30;99.90;;;;;;5112696;28;20566;-44
2022/04/12 01:25:13;;;;;;;1.13;1.03;;;6.40;99.90;;;;;;5112670;28;20498;-43
2022/04/12 01:27:40;;;;;;;1.67;1.37;;;6.50;99.90;;;;;;5112407;28;20520;-49
2022/04/12 01:30:08;;;;;;;1.93;1.23;;;6.70;99.90;;;;;;5112551;28;20481;-44
2022/04/12 01:32:35;;;;;;;1.93;1.00;;;6.70;99.90;;;;;;5111784;28;20534;-44
2022/04/12 01:35:02;;;;;;;3.03;1.10;;;6.90;99.90;;;;;;5112258;28;20458;-44
2022/04/12 01:37:29;;;;;;;2.53;1.23;;;6.70;99.90;;;;;;5111790;28;20491;-47
2022/04/12 01:39:56;;;;;;;1.10;1.00;;;6.40;99.90;;;;;;5112234;28;20951;-44
2022/04/12 01:42:24;;;;;;;1.63;1.53;;;6.40;99.90;;;;;;5111798;28;20471;-44
2022/04/12 01:44:51;;;;;;;2.27;1.23;;;6.30;99.90;;;;;;5112439;28;20511;-44
2022/04/12 01:47:18;;;;;;;1.40;1.30;;;6.30;99.90;;;;;;5112637;28;20488;-44
2022/04/12 01:49:45;;;;;;;2.20;1.30;;;6.10;99.90;;;;;;5112284;28;20446;-44
2022/04/12 01:52:12;;;;;;;1.43;1.20;;;6.20;99.90;;;;;;5111945;28;20872;-44
2022/04/12 01:54:39;;;;;;;2.30;1.67;;;6.20;99.90;;;;;;5111306;28;20498;-44
2022/04/12 01:57:06;;;;;;;1.57;1.17;;;6.10;99.90;;;;;;5111905;28;20435;-47
2022/04/12 01:59:34;;;;;;;1.47;1.37;;;5.90;99.90;;;;;;5112142;28;20500;-44
2022/04/12 02:02:01;;;;;;;2.60;1.50;;;5.70;99.90;;;;;;5111951;28;20482;-46
2022/04/12 02:04:28;;;;;;;1.87;1.20;;;5.50;99.90;;;;;;5111379;28;20487;-44
2022/04/12 02:06:55;;;;;;;1.40;1.30;;;5.40;99.90;;;;;;5111961;28;20870;-44
2022/04/12 02:09:22;;;;;;;2.30;1.13;;;5.30;99.90;;;;;;5111726;28;20483;-44
2022/04/12 02:11:49;;;;;;;1.70;1.40;;;5.60;99.90;;;;;;5111575;28;20996;-49
2022/04/12 02:14:16;;;;;;;1.90;1.30;;;5.90;99.90;;;;;;5111390;28;20466;-45
2022/04/12 02:16:44;;;;;;;2.43;1.33;;;5.90;99.90;;;;;;5111707;28;20874;-44
2022/04/12 02:19:11;;;;;;;1.47;1.33;;;5.90;99.90;;;;;;5111651;28;20838;-44
2022/04/12 02:21:38;;;;;;;1.83;0.90;;;5.90;99.90;;;;;;5111566;28;20932;-45
2022/04/12 02:24:05;;;;;;;2.00;1.20;;;5.80;99.90;;;;;;5111285;28;20458;-46
2022/04/12 02:26:32;;;;;;;1.10;0.90;;;5.80;99.90;;;;;;5111476;28;20510;-46
2022/04/12 02:28:59;;;;;;;2.10;1.40;;;5.60;99.90;;;;;;5111487;28;20450;-44
2022/04/12 02:31:26;;;;;;;1.60;1.27;;;5.90;99.90;;;;;;5110967;28;20446;-45
2022/04/12 02:33:55;;;;;;;1.33;1.23;;;6.10;99.90;;;;;;5111043;28;20474;-44
2022/04/12 02:36:21;;;;;;;1.20;0.93;;;6.20;99.90;;;;;;5111379;28;20848;-44
2022/04/12 02:38:48;;;;;;;1.87;1.40;;;6.30;99.90;;;;;;5111877;28;20469;-48
2022/04/12 02:41:15;;;;;;;2.00;1.30;;;6.20;99.90;;;;;;5111114;28;20481;-44
2022/04/12 02:43:42;;;;;;;1.63;1.40;;;6.00;99.90;;;;;;5110823;28;20491;-44
2022/04/12 02:46:09;;;;;;;1.60;1.50;;;5.90;99.90;;;;;;5111095;28;20474;-48
2022/04/12 02:48:36;;;;;;;2.20;1.20;;;5.60;99.90;;;;;;5111050;28;20993;-44
2022/04/12 02:51:04;;;;;;;3.00;1.10;;;5.50;99.90;;;;;;5111193;28;20537;-43
2022/04/12 02:53:31;;;;;;;2.73;1.20;;;5.40;99.90;;;;;;5110447;28;20525;-49
2022/04/12 02:55:58;;;;;;;1.43;0.80;;;5.60;99.90;;;;;;5111152;28;20530;-44
2022/04/12 02:58:25;;;;;;;1.27;1.17;;;5.60;99.90;;;;;;5111272;28;20526;-47
2022/04/12 03:00:52;;;;;;;1.57;1.17;;;5.50;99.90;;;;;;5110999;28;20469;-47
2022/04/12 03:03:19;;;;;;;1.20;1.00;;;5.50;99.90;;;;;;5110692;28;20512;-45
2022/04/12 03:05:46;;;;;;;1.80;1.10;;;5.60;99.90;;;;;;5110975;28;20920;-45
2022/04/12 03:08:14;;;;;;;2.83;1.57;;;5.90;99.90;;;;;;5111147;28;20521;-45
2022/04/12 03:10:41;;;;;;;1.20;1.03;;;6.00;99.90;;;;;;5111005;28;20515;-44
2022/04/12 03:13:22;;;;;;;1.73;1.30;;;6.00;99.90;;;;;;5110840;28;20558;-48
2022/04/12 03:15:49;;;;;;;1.53;1.20;;;5.40;99.90;;;;;;5110867;28;20525;-45
2022/04/12 03:18:17;;;;;;;2.40;1.30;;;5.50;99.90;;;;;;5110938;28;20439;-43
2022/04/12 03:20:44;;;;;;;1.43;1.33;;;5.30;99.90;;;;;;5110987;28;20536;-44
2022/04/12 03:23:11;;;;;;;1.20;1.10;;;5.10;99.90;;;;;;5110643;28;20466;-48
2022/04/12 03:25:40;;;;;;;1.67;1.10;;;5.10;99.90;;;;;;5110851;28;20557;-44
2022/04/12 03:28:07;;;;;;;1.67;1.50;;;5.40;99.90;;;;;;5110723;28;20446;-44
2022/04/12 03:30:34;;;;;;;2.43;1.60;;;5.50;99.90;;;;;;5110975;28;20446;-44
2022/04/12 03:33:01;;;;;;;1.10;1.00;;;5.50;99.90;;;;;;5109929;28;20471;-44
2022/04/12 03:35:28;;;;;;;1.20;1.03;;;5.40;99.90;;;;;;5110596;28;20447;-48
2022/04/12 03:37:59;;;;;;;4.03;1.70;;;5.50;99.90;;;;;;5110859;28;20636;-44
2022/04/12 03:40:28;;;;;;;4.30;2.60;;;5.30;99.90;;;;;;5110853;28;21023;-47
2022/04/12 03:42:57;;;;;;;4.97;3.33;;;5.10;99.90;;;;;;5110186;28;20446;-46
2022/04/12 03:45:23;;;;;;;3.17;2.87;;;5.30;99.90;;;;;;5110635;28;20506;-44
2022/04/12 03:47:50;;;;;;;2.30;1.63;;;5.40;99.90;;;;;;5111014;28;20474;-44
2022/04/12 03:50:17;;;;;;;1.77;1.27;;;5.50;99.90;;;;;;5110320;28;20494;-47
2022/04/12 03:52:44;;;;;;;2.17;1.20;;;5.50;99.90;;;;;;5109885;28;20997;-44
2022/04/12 03:55:11;;;;;;;2.30;1.33;;;5.60;99.90;;;;;;5110577;28;20470;-43
2022/04/12 03:57:38;;;;;;;1.00;1.00;;;5.50;99.90;;;;;;5110767;28;20938;-43
2022/04/12 04:00:09;;;;;;;1.50;1.40;;;5.60;99.90;;;;;;5112886;28;20541;-46
2022/04/12 04:02:36;;;;;;;2.10;1.30;;;5.50;99.90;;;;;;5114366;28;20466;-47
2022/04/12 04:05:03;;;;;;;1.50;1.10;;;5.20;99.90;;;;;;5113943;28;20463;-45
2022/04/12 04:07:30;;;;;;;1.13;1.03;;;5.30;99.90;;;;;;5114103;28;20443;-46
2022/04/12 04:09:57;;;;;;;1.77;1.30;;;5.50;99.90;;;;;;5114199;28;20438;-44
2022/04/12 04:12:24;;;;;;;2.20;1.27;;;5.60;99.90;;;;;;5113680;28;20989;-47
2022/04/12 04:14:51;;;;;;;1.40;1.30;;;5.70;99.90;;;;;;5113700;28;20477;-44
2022/04/12 04:17:20;;;;;;;1.37;1.10;;;5.70;99.90;;;;;;5113935;28;20540;-44
2022/04/12 04:19:46;;;;;;;1.67;1.20;;;5.70;99.90;;;;;;5113767;28;20439;-46
2022/04/12 04:22:13;;;;;;;1.27;1.17;;;5.70;99.90;;;;;;5113519;28;20469;-44
2022/04/12 04:24:40;;;;;;;1.13;1.03;;;5.40;99.90;;;;;;5113813;28;20455;-43
2022/04/12 04:27:08;;;;;;;1.50;1.40;;;5.20;99.90;;;;;;5114093;28;20513;-49
2022/04/12 04:29:35;;;;;;;1.50;1.40;;;5.00;99.90;;;;;;5113843;28;20453;-44
2022/04/12 04:32:02;;;;;;;2.20;1.20;;;5.10;99.90;;;;;;5112964;28;20966;-44
2022/04/12 04:34:30;;;;;;;2.40;1.30;;;5.30;99.90;;;;;;5113196;28;20549;-44
2022/04/12 04:36:57;;;;;;;1.97;1.40;;;5.40;99.90;;;;;;5113532;28;20530;-43
2022/04/12 04:39:24;;;;;;;3.53;1.47;;;5.50;99.90;;;;;;5113236;28;20442;-50
2022/04/12 04:41:51;;;;;;;1.73;1.20;;;5.40;99.90;;;;;;5113453;28;20469;-44
2022/04/12 04:44:18;;;;;;;3.10;1.97;;;5.20;99.90;;;;;;5113123;28;20494;-43
2022/04/12 04:46:45;;;;;;;1.40;1.30;;;5.30;99.90;;;;;;5113182;28;20474;-44
2022/04/12 04:49:12;;;;;;;2.50;1.30;;;5.30;99.90;;;;;;5113604;28;20499;-44
2022/04/12 04:51:41;;;;;;;1.90;1.53;;;5.40;99.90;;;;;;5113405;28;20542;-49
2022/04/12 04:54:08;;;;;;;1.57;1.20;;;5.40;99.90;;;;;;5112454;28;20999;-44
2022/04/12 04:56:35;;;;;;;4.10;2.30;;;5.40;99.90;;;;;;5113739;28;20446;-45
2022/04/12 04:59:02;;;;;;;6.47;2.10;;;5.50;99.90;;;;;;5112951;28;20856;-43
2022/04/12 05:01:29;;;;;;;3.57;1.97;;;5.60;99.90;;;;;;5113162;28;20473;-48
2022/04/12 05:03:56;;;;;;;1.73;1.63;;;5.60;99.90;;;;;;5112578;28;20457;-43
2022/04/12 05:06:23;;;;;;;1.40;1.30;;;5.50;99.90;;;;;;5109195;28;20622;-39
2022/04/12 05:08:52;;;;;;;1.73;1.57;;;5.20;99.90;;;;;;5109845;28;20488;-46
2022/04/12 05:11:19;;;;;;;2.20;1.40;;;5.30;99.90;;;;;;5112929;28;20478;-44
2022/04/12 05:13:45;;;;;;;1.30;1.20;;;5.40;99.90;;;;;;5112460;28;20467;-43
2022/04/12 05:16:13;;;;;;;1.67;1.37;;;5.20;99.90;;;;;;5112648;28;20435;-45
2022/04/12 05:18:40;;;;;;;1.77;1.23;;;5.30;99.90;;;;;;5112746;28;20488;-44
2022/04/12 05:21:06;;;;;;;2.70;1.53;;;5.60;99.90;;;;;;5105967;28;20493;-49
2022/04/12 05:23:33;;;;;;;3.60;1.90;;;5.70;99.90;;;;;;5095227;28;20542;-44
2022/04/12 05:26:02;;;;;;;1.70;1.50;;;5.80;99.90;;;;;;5109217;28;20547;-44
2022/04/12 05:28:29;;;;;;;1.43;1.33;;;5.70;99.90;;;;;;5111628;28;20463;-44
2022/04/12 05:30:56;;;;;;;2.20;1.13;;;5.50;99.90;;;;;;5092505;28;20801;-44
2022/04/12 05:33:23;;;;;;;3.53;1.30;;;5.60;99.90;;;;;;5091480;28;20498;-44
2022/04/12 05:35:50;;;;;;;3.83;1.17;;;5.70;99.90;;;;;;5091898;28;20480;-44
2022/04/12 05:38:17;;;;;;;1.80;1.30;;;5.50;99.90;;;;;;5091774;28;20471;-47
2022/04/12 05:40:44;;;;;;;1.60;1.50;;;5.50;99.90;;;;;;5090980;28;20439;-47
2022/04/12 05:43:13;;;;;;;2.27;1.37;;;5.60;99.90;;;;;;5104140;28;20465;-44
2022/04/12 05:45:40;;;;;;;2.60;1.73;;;5.60;99.90;;;;;;5100168;28;20945;-44
2022/04/12 05:48:07;;;;;;;1.47;1.37;;;5.40;99.90;;;;;;5091819;28;20470;-44
2022/04/12 05:50:34;;;;;;;2.30;2.17;;;5.40;99.90;;;;;;5091745;28;20945;-44
2022/04/12 05:53:01;;;;;;;2.77;2.50;;;5.50;99.90;;;;;;5090884;28;20479;-43
2022/04/12 05:55:28;;;;;;;3.07;2.33;;;5.70;99.90;;;;;;5091793;28;20527;-46
2022/04/12 05:57:57;;;;;;;4.63;2.43;;;5.80;99.90;;;;;;5091493;28;20443;-44
2022/04/12 06:00:26;;;;;;;4.60;4.20;;;5.90;99.90;;;;;;5091563;28;20435;-44
2022/04/12 06:02:54;;;;;;;4.30;3.20;;;5.90;99.90;;;;;;5091276;28;20440;-45
2022/04/12 06:05:22;;;;;;;3.30;3.00;;;6.00;99.90;;;;;;5091774;28;20451;-49
2022/04/12 06:07:49;;;;;;;3.90;2.07;;;5.90;99.90;;;;;;5091535;28;20972;-44
2022/04/12 06:10:18;;;;;;;1.90;1.10;;;5.70;99.90;;;;;;5090767;28;20502;-44
2022/04/12 06:12:46;;;;;;;3.10;2.50;;;5.40;99.90;;;;;;5108557;28;20979;-44
2022/04/12 06:15:13;;;;;;;2.00;1.63;;;5.30;99.90;;;;;;5111733;28;20451;-44
2022/04/12 06:17:42;;;;;;;1.47;1.37;;;5.50;99.90;;;;;;5111398;28;20437;-48
2022/04/12 06:20:11;;;;;;;1.90;1.20;;;5.70;99.90;;;;;;5111693;28;20496;-45
2022/04/12 06:22:38;;;;;;;1.47;1.37;;;5.90;99.90;;;;;;5110932;28;20529;-45
2022/04/12 06:25:07;;;;;;;1.70;1.13;;;6.10;99.90;;;;;;5111619;28;20458;-47
2022/04/12 06:27:36;;;;;;;3.60;3.20;;;6.10;99.90;;;;;;5111391;28;20474;-44
2022/04/12 06:30:09;;;;;;;3.53;3.23;;;6.10;99.90;;;;;;5111529;28;20956;-48
2022/04/12 06:32:36;;;;;;;2.13;1.93;;;6.30;99.90;;;;;;5111262;28;20447;-46
2022/04/12 06:35:06;;;;;;;2.00;1.63;;;6.00;99.90;;;;;;5110632;28;20968;-44
2022/04/12 06:37:34;;;;;;;2.07;1.60;;;5.90;99.90;;;;;;5110508;28;20491;-49
2022/04/12 06:40:01;;;;;;;1.73;1.40;;;6.00;99.90;;;;;;5110713;28;20481;-43
2022/04/12 06:42:29;;;;;;;4.37;1.70;;;6.00;99.90;;;;;;5110991;28;20529;-45
2022/04/12 06:44:56;;;;;;;1.50;1.23;;;6.20;99.90;;;;;;5110941;28;20985;-44
2022/04/12 06:47:23;;;;;;;2.47;2.30;;;6.40;99.90;;;;;;5111243;28;20553;-44
2022/04/12 06:49:51;;;;;;;5.57;3.13;;;6.30;99.90;;;;;;5110998;28;20434;-44
2022/04/12 06:52:22;;;;;;;4.90;4.10;;;6.40;99.90;;;;;;5111132;28;20956;-47
2022/04/12 06:54:50;;;;;;;6.13;5.63;;;6.50;99.90;;;;;;5111190;28;20494;-44
2022/04/12 06:57:17;;;;;;;4.70;3.90;;;6.60;99.90;;;;;;5111250;28;20443;-48
2022/04/12 06:59:44;;;;;;;1.80;1.70;;;6.50;99.90;;;;;;5111257;28;20983;-44
2022/04/12 07:02:12;;;;;;;2.40;1.97;;;6.40;99.90;;;;;;5111343;28;20438;-44
2022/04/12 07:04:39;;;;;;;2.20;1.93;;;6.30;99.90;;;;;;5111463;28;20462;-44
2022/04/12 07:07:06;;;;;;;3.50;3.20;;;6.20;99.90;;;;;;5111195;28;21104;-44
2022/04/12 07:09:34;;;;;;;4.77;4.47;;;6.30;99.90;;;;;;5111304;28;20526;-44
2022/04/12 07:12:03;;;;;;;5.10;4.70;;;6.50;99.90;;;;;;5096285;28;20447;-44
2022/04/12 07:14:31;;;;;;;4.37;3.97;;;6.70;99.90;;;;;;5102621;28;20498;-50
2022/04/12 07:16:59;;;;;;;3.77;3.50;;;6.90;99.90;;;;;;5091234;28;20439;-48
2022/04/12 07:19:26;;;;;;;4.33;3.63;;;7.10;99.90;;;;;;5106839;28;20511;-44
2022/04/12 07:21:53;;;;;;;4.33;3.97;;;7.30;99.90;;;;;;5095241;28;20521;-47
2022/04/12 07:24:20;;;;;;;5.80;5.30;;;7.40;99.90;;;;;;5110153;28;20905;-47
2022/04/12 07:26:49;;;;;;;6.03;4.60;;;7.40;99.90;;;;;;5106250;28;20524;-47
2022/04/12 07:29:16;;;;;;;4.27;2.83;;;7.40;99.90;;;;;;5102521;28;20941;-46
2022/04/12 07:31:43;;;;;;;1.93;1.73;;;7.50;99.90;;;;;;5090500;28;20447;-49
2022/04/12 07:34:10;;;;;;;2.70;2.00;;;7.60;99.90;;;;;;5104730;28;20548;-44
2022/04/12 07:36:39;;;;;;;3.80;2.90;;;7.70;99.90;;;;;;5101855;28;20436;-44
2022/04/12 07:39:06;;;;;;;3.57;2.80;;;7.80;99.90;;;;;;5094678;28;20838;-44
2022/04/12 07:41:33;;;;;;;3.77;2.00;;;7.90;99.90;;;;;;5094656;28;20479;-47
2022/04/12 07:44:02;;;;;;;1.80;1.43;;;8.00;99.90;;;;;;5094146;28;20487;-45
2022/04/12 07:46:29;;;;;;;4.07;2.10;;;8.00;99.90;;;;;;5110473;28;20466;-44
2022/04/12 07:48:56;;;;;;;3.40;2.20;;;8.10;99.90;;;;;;5114662;28;20483;-44
2022/04/12 07:51:22;;;;;;;2.77;2.10;;;8.10;99.90;;;;;;5114519;28;20495;-45
2022/04/12 07:53:49;;;;;;;2.33;1.70;;;8.20;99.90;;;;;;5113687;28;20494;-44
2022/04/12 07:56:17;;;;;;;2.03;1.53;;;8.30;99.90;;;;;;5114790;28;20473;-47
2022/04/12 07:58:44;;;;;;;2.30;1.57;;;8.40;99.90;;;;;;5114049;28;20508;-45
2022/04/12 08:01:13;;;;;;;2.07;1.70;;;8.60;99.90;;;;;;5113517;28;20466;-44
2022/04/12 08:03:40;;;;;;;2.40;1.87;;;8.80;99.80;;;;;;5113344;28;21072;-44
2022/04/12 08:06:08;;;;;;;7.30;3.00;;;9.00;99.90;;;;;;5114081;28;20434;-46
2022/04/12 08:08:35;;;;;;;2.10;1.57;;;9.20;99.90;;;;;;5114563;28;20476;-44
2022/04/12 08:11:02;;;;;;;1.97;1.23;;;9.30;99.90;;;;;;5114068;28;20483;-45
2022/04/12 08:13:30;;;;;;;2.27;1.27;;;9.50;99.90;;;;;;5113712;28;20466;-49
2022/04/12 08:15:57;;;;;;;13.93;3.40;;;9.60;99.90;;;;;;5114429;28;20435;-44
2022/04/12 08:18:25;;;;;;;17.83;5.10;;;9.70;99.90;;;;;;5114370;28;20506;-42
2022/04/12 08:20:54;;;;;;;5.57;2.60;;;9.90;99.90;;;;;;5113483;28;20481;-46
2022/04/12 08:23:22;;;;;;;2.53;2.13;;;10.10;99.90;;;;;;5112349;28;20545;-46
2022/04/12 08:25:49;;;;;;;12.97;4.90;;;10.30;99.90;;;;;;5113393;28;20434;-43
2022/04/12 08:28:16;;;;;;;4.80;1.70;;;10.60;99.90;;;;;;5114209;28;20570;-44
2022/04/12 08:30:43;;;;;;;4.67;1.90;;;10.70;97.80;;;;;;5114183;28;20439;-45
2022/04/12 08:33:10;;;;;;;2.40;1.60;;;10.70;98.20;;;;;;5113590;28;20541;-44
2022/04/12 08:35:38;;;;;;;2.63;1.70;;;10.80;99.10;;;;;;5113560;28;20526;-48
2022/04/12 08:38:06;;;;;;;19.17;17.57;;;10.90;97.80;;;;;;5113821;28;20525;-45
2022/04/12 08:40:33;;;;;;;2.67;2.40;;;11.00;96.80;;;;;;5114032;28;20474;-44
2022/04/12 08:43:00;;;;;;;9.07;3.07;;;11.20;96.00;;;;;;5100023;28;20482;-46
2022/04/12 08:45:27;;;;;;;2.60;1.60;;;11.40;96.90;;;;;;5100354;28;20555;-45
2022/04/12 08:47:54;;;;;;;3.43;1.47;;;11.60;94.10;;;;;;5104064;28;20898;-45
2022/04/12 08:50:23;;;;;;;2.90;2.10;;;11.90;94.40;;;;;;5093015;28;20439;-45
2022/04/12 08:52:53;;;;;;;1.93;1.50;;;12.10;95.10;;;;;;5092843;28;20496;-45
2022/04/12 08:55:21;;;;;;;2.63;1.50;;;12.30;94.90;;;;;;5103786;28;20490;-48
2022/04/12 08:57:48;;;;;;;2.03;1.40;;;12.40;95.70;;;;;;5113227;28;20477;-44
2022/04/12 09:00:15;;;;;;;3.00;1.40;;;12.60;95.50;;;;;;5110820;28;20510;-45
2022/04/12 09:02:42;;;;;;;2.33;1.50;;;12.70;93.50;;;;;;5094196;28;20492;-44
2022/04/12 09:05:10;;;;;;;2.77;1.70;;;12.90;91.80;;;;;;5096798;28;20451;-45
2022/04/12 09:07:47;;;;;;;2.60;1.20;;;13.20;93.40;;;;;;5091632;28;20467;-47
2022/04/12 09:10:16;;;;;;;2.43;2.23;;;13.30;90.00;;;;;;5092476;28;20447;-45
2022/04/12 09:12:43;;;;;;;2.37;1.13;;;13.40;90.90;;;;;;5091804;28;20853;-44
2022/04/12 09:15:12;;;;;;;1.20;1.00;;;13.70;93.80;;;;;;5144136;22;20510;-44
2022/04/12 09:17:44;;;;;;;2.50;1.43;;;13.80;89.40;;;;;;5133808;27;20438;-43
2022/04/12 09:20:13;;;;;;;1.77;1.20;;;13.90;84.40;;;;;;5133631;27;20441;-43
2022/04/12 09:22:40;;;;;;;1.70;1.20;;;13.90;80.10;;;;;;5133143;27;20584;-44
2022/04/12 09:25:10;;;;;;;3.50;1.17;;;14.00;90.20;;;;;;5133332;27;20457;-43
2022/04/12 09:27:39;;;;;;;5.13;4.43;;;14.10;77.70;;;;;;5133352;27;20584;-44
2022/04/12 09:30:08;;;;;;;3.03;1.10;;;14.10;81.30;;;;;;5133508;27;21026;-44
2022/04/12 09:32:37;;;;;;;1.67;1.13;;;14.30;84.70;;;;;;5133192;27;20521;-44
2022/04/12 09:35:05;;;;;;;2.63;1.57;;;14.40;85.50;;;;;;5133351;27;20577;-44
2022/04/12 09:37:34;;;;;;;2.03;1.20;;;14.40;76.60;;;;;;5133463;27;20438;-43
2022/04/12 09:40:08;;;;;;;1.80;1.50;;;14.60;87.40;;;;;;5133041;27;20461;-43
2022/04/12 09:42:48;;;;;;;1.40;1.20;;;14.70;80.60;;;;;;5133132;27;20439;-43
2022/04/12 09:45:17;;;;;;;4.43;1.90;;;14.70;80.00;;;;;;5133044;27;20500;-44
2022/04/12 09:47:46;;;;;;;1.43;1.00;;;14.80;82.20;;;;;;5132873;27;20484;-43
2022/04/12 09:50:14;;;;;;;5.30;1.70;;;14.80;76.80;;;;;;5133400;27;20472;-44
2022/04/12 09:52:53;;;;;;;2.60;1.60;;;14.80;77.90;;;;;;5132872;27;20935;-44
2022/04/12 09:55:34;;;;;;;2.97;1.50;;;15.00;82.80;;;;;;5133198;27;20457;-45
2022/04/12 09:58:05;;;;;;;1.43;1.13;;;15.10;78.40;;;;;;5132483;27;20445;-44
2022/04/12 10:00:33;;;;;;;1.83;1.63;;;15.20;80.00;;;;;;5132949;27;20434;-44
2022/04/12 10:03:02;;;;;;;1.50;0.93;;;15.40;78.90;;;;;;5132706;27;20951;-44
2022/04/12 10:05:29;;;;;;;2.20;1.43;;;15.30;81.30;;;;;;5132830;27;20485;-44
2022/04/12 10:07:58;;;;;;;1.20;1.10;;;15.40;78.90;;;;;;5133070;27;20530;-44
2022/04/12 10:10:25;;;;;;;4.67;1.83;;;15.40;73.10;;;;;;5132899;27;20524;-44
2022/04/12 10:12:54;;;;;;;1.00;0.80;;;15.50;75.30;;;;;;5132804;27;20521;-44
2022/04/12 10:15:24;;;;;;;2.03;1.10;;;15.50;78.40;;;;;;5132107;27;20876;-43
2022/04/12 10:17:52;;;;;;;3.10;2.10;;;15.60;75.00;;;;;;5132767;27;20462;-44
2022/04/12 10:20:20;;;;;;;2.70;1.30;;;15.80;84.60;;;;;;5132519;27;20445;-44
2022/04/12 10:22:47;;;;;;;2.67;1.50;;;15.90;78.10;;;;;;5131959;27;20947;-44
2022/04/12 10:25:17;;;;;;;3.27;1.47;;;16.00;81.70;;;;;;5132195;27;20458;-44
2022/04/12 10:27:44;;;;;;;1.30;1.00;;;16.10;81.10;;;;;;5132734;27;20516;-44
2022/04/12 10:30:30;;;;;;;1.60;1.00;;;16.20;80.10;;;;;;5132589;27;20951;-44
2022/04/12 10:33:01;;;;;;;5.10;1.80;;;16.20;78.20;;;;;;5131922;27;20445;-44
2022/04/12 10:35:29;;;;;;;2.63;0.93;;;16.30;80.30;;;;;;5119156;27;20482;-44
2022/04/12 10:37:57;;;;;;;2.07;0.97;;;16.40;80.60;;;;;;5126516;27;20541;-43
2022/04/12 10:40:26;;;;;;;2.10;1.17;;;16.40;79.50;;;;;;5132281;27;20452;-44
2022/04/12 10:42:54;;;;;;;1.83;1.00;;;16.50;75.00;;;;;;5131466;27;20446;-44
2022/04/12 10:45:32;;;;;;;1.27;1.07;;;16.40;73.90;;;;;;5130213;27;20457;-45
2022/04/12 10:48:01;;;;;;;2.40;1.07;;;16.40;71.10;;;;;;5127617;27;20497;-44
2022/04/12 10:50:28;;;;;;;1.70;1.17;;;16.50;72.50;;;;;;5121242;27;20434;-44
2022/04/12 10:52:55;;;;;;;1.43;1.20;;;16.60;70.80;;;;;;5121827;27;20525;-44
2022/04/12 10:55:25;;;;;;;1.20;1.10;;;16.70;77.30;;;;;;5130205;27;20512;-45
2022/04/12 10:57:53;;;;;;;3.20;1.60;;;16.80;76.20;;;;;;5124504;28;20434;-45
2022/04/12 11:00:21;;;;;;;3.57;1.23;;;16.80;73.80;;;;;;5113471;28;20473;-45
2022/04/12 11:02:56;;;;;;;1.10;1.00;;;16.90;78.50;;;;;;5127239;28;20437;-45
2022/04/12 11:05:53;;;;;;;5.10;1.57;;;17.10;73.90;;;;;;5112474;28;20458;-45
2022/04/12 11:08:47;;;;;;;1.57;1.20;;;17.10;75.30;;;;;;5112151;28;20509;-44
2022/04/12 11:11:28;;;;;;;3.73;1.57;;;17.10;70.90;;;;;;5114659;28;20751;-44
2022/04/12 11:14:16;;;;;;;2.93;1.30;;;17.10;73.00;;;;;;5117686;27;20564;-45
2022/04/12 11:16:49;;;;;;;3.60;1.60;;;17.10;73.30;;;;;;5114456;28;20521;-46
2022/04/12 11:19:22;;;;;;;1.73;1.33;;;17.10;70.60;;;;;;5113958;28;20821;-43
2022/04/12 11:22:02;;;;;;;5.90;1.57;;;17.20;74.20;;;;;;5114648;28;20438;-44
2022/04/12 11:24:30;;;;;;;2.50;1.47;;;17.30;74.80;;;;;;5113781;28;20836;-44
2022/04/12 11:27:11;;;;;;;2.07;1.30;;;17.40;72.40;;;;;;5113902;28;20473;-44
2022/04/12 11:29:39;;;;;;;1.90;1.40;;;17.50;73.20;;;;;;5115006;28;20789;-44
2022/04/12 11:32:07;;;;;;;1.43;1.30;;;17.60;74.30;;;;;;5115118;28;20491;-44
2022/04/12 11:34:37;;;;;;;4.97;3.00;;;17.80;74.40;;;;;;5114926;28;20963;-45
2022/04/12 11:37:07;;;;;;;3.97;1.40;;;17.80;71.80;;;;;;5114976;28;20941;-44
2022/04/12 11:39:38;;;;;;;2.13;1.10;;;17.80;67.30;;;;;;5114183;28;20444;-44
2022/04/12 11:42:06;;;;;;;2.37;1.10;;;17.70;62.60;;;;;;5114555;28;20442;-46
2022/04/12 11:44:33;;;;;;;3.90;1.17;;;17.70;61.20;;;;;;5114441;28;20458;-44
2022/04/12 11:47:02;;;;;;;1.80;1.33;;;17.70;62.10;;;;;;5115050;28;20466;-44
2022/04/12 11:49:31;;;;;;;1.20;1.00;;;17.90;64.60;;;;;;5114308;28;20506;-44
2022/04/12 11:52:02;;;;;;;3.30;1.57;;;18.00;66.00;;;;;;5114879;28;20500;-44
2022/04/12 11:54:30;;;;;;;1.90;1.30;;;18.20;61.80;;;;;;5121144;27;20453;-44
2022/04/12 11:57:02;;;;;;;7.10;2.00;;;18.20;65.30;;;;;;5135351;27;20472;-44
2022/04/12 11:59:30;;;;;;;28.67;4.77;;;18.30;72.20;;;;;;5135371;27;20469;-44
2022/04/12 12:01:59;;;;;;;11.90;7.47;;;18.60;67.20;;;;;;5135245;27;20520;-43
2022/04/12 12:04:29;;;;;;;4.70;4.20;;;18.80;60.90;;;;;;5134728;27;20798;-43
2022/04/12 12:06:58;;;;;;;15.33;6.73;;;18.90;59.10;;;;;;5134340;27;20443;-45
2022/04/12 12:09:26;;;;;;;18.97;5.43;;;19.00;60.10;;;;;;5133616;27;20900;-45
2022/04/12 12:11:53;;;;;;;322.83;72.60;;;19.40;64.00;;;;;;5133742;27;20445;-44
2022/04/12 12:14:21;;;;;;;18.37;4.37;;;19.50;59.00;;;;;;5133210;27;20503;-44
2022/04/12 12:17:01;;;;;;;20.43;3.93;;;19.30;62.20;;;;;;5133589;27;20811;-44
2022/04/12 12:19:29;;;;;;;1.20;0.80;;;19.40;61.30;;;;;;5132922;27;20441;-44
2022/04/12 12:21:56;;;;;;;1.83;0.90;;;19.40;58.00;;;;;;5132273;27;20494;-44
2022/04/12 12:24:23;;;;;;;11.80;1.77;;;19.30;56.40;;;;;;5113148;28;20524;-45
2022/04/12 12:26:55;;;;;;;1.73;1.00;;;19.30;54.70;;;;;;5113913;28;20485;-44
2022/04/12 12:29:23;;;;;;;1.67;0.70;;;19.30;59.50;;;;;;5113398;28;20473;-45
2022/04/12 12:31:50;;;;;;;2.87;1.10;;;19.20;52.90;;;;;;5113135;28;20490;-45
2022/04/12 12:34:31;;;;;;;7.73;1.43;;;19.20;55.60;;;;;;5117723;27;20540;-44
2022/04/12 12:36:58;;;;;;;2.77;0.90;;;19.30;57.40;;;;;;5134495;27;20445;-44
2022/04/12 12:39:28;;;;;;;3.00;0.87;;;19.50;55.90;;;;;;5134354;27;20469;-44
2022/04/12 12:41:59;;;;;;;1.77;0.90;;;19.50;52.60;;;;;;5134381;27;20495;-44
2022/04/12 12:44:26;;;;;;;2.30;1.00;;;19.50;51.40;;;;;;5113750;28;20512;-44
2022/04/12 12:46:59;;;;;;;422.20;52.37;;;19.50;51.20;;;;;;5113587;28;20439;-44
2022/04/12 12:49:35;;;;;;;27.37;4.80;;;19.50;53.30;;;;;;5113665;28;20490;-44
2022/04/12 12:52:04;;;;;;;3.77;1.40;;;20.20;62.40;;;;;;5113652;28;20434;-45
2022/04/12 12:54:31;;;;;;;14.23;9.60;;;20.40;52.60;;;;;;5112971;28;20458;-44
2022/04/12 12:57:01;;;;;;;36.60;7.37;;;20.40;54.60;;;;;;5113582;28;20783;-44
2022/04/12 12:59:30;;;;;;;3.00;1.10;;;20.30;53.10;;;;;;5112271;28;20458;-45
2022/04/12 13:01:58;;;;;;;1.77;1.13;;;20.10;53.10;;;;;;5112131;28;20470;-45